sensor_id;sensor_type;location;lat;lon;timestamp;P1;durP1;ratioP1;P2;durP2;ratioP2
70332;SDS011;57747;43.548;-5.704;2023-03-14T00:02:01;4.97;;;0.82;;
70332;SDS011;57747;43.548;-5.704;2023-03-14T00:04:27;6.80;;;1.77;;
70332;SDS011;57747;43.548;-5.704;2023-03-14T00:06:52;6.45;;;0.82;;
70332;SDS011;57747;43.548;-5.704;2023-03-14T00:09:17;12.80;;;1.13;;
70332;SDS011;57747;43.548;-5.704;2023-03-14T00:11:43;7.03;;;1.60;;
70332;SDS011;57747;43.548;-5.704;2023-03-14T00:14:08;4.07;;;1.10;;
70332;SDS011;57747;43.548;-5.704;2023-03-14T00:16:34;8.15;;;1.55;;
70332;SDS011;57747;43.548;-5.704;2023-03-14T00:18:59;6.93;;;1.25;;
70332;SDS011;57747;43.548;-5.704;2023-03-14T00:21:25;4.45;;;1.00;;
70332;SDS011;57747;43.548;-5.704;2023-03-14T00:23:50;3.38;;;1.10;;
70332;SDS011;57747;43.548;-5.704;2023-03-14T00:26:17;6.50;;;1.27;;
70332;SDS011;57747;43.548;-5.704;2023-03-14T00:28:42;7.13;;;1.70;;
70332;SDS011;57747;43.548;-5.704;2023-03-14T00:31:09;9.95;;;1.50;;
70332;SDS011;57747;43.548;-5.704;2023-03-14T00:33:35;7.30;;;0.77;;
70332;SDS011;57747;43.548;-5.704;2023-03-14T00:36:04;8.32;;;2.28;;
70332;SDS011;57747;43.548;-5.704;2023-03-14T00:38:31;12.35;;;1.30;;
70332;SDS011;57747;43.548;-5.704;2023-03-14T00:40:56;7.65;;;1.30;;
70332;SDS011;57747;43.548;-5.704;2023-03-14T00:43:22;6.97;;;1.40;;
70332;SDS011;57747;43.548;-5.704;2023-03-14T00:45:50;12.82;;;1.63;;
70332;SDS011;57747;43.548;-5.704;2023-03-14T00:48:17;7.10;;;2.38;;
70332;SDS011;57747;43.548;-5.704;2023-03-14T00:50:42;9.90;;;1.80;;
70332;SDS011;57747;43.548;-5.704;2023-03-14T00:53:07;5.88;;;1.60;;
70332;SDS011;57747;43.548;-5.704;2023-03-14T00:55:36;6.22;;;1.42;;
70332;SDS011;57747;43.548;-5.704;2023-03-14T00:58:01;3.88;;;0.80;;
70332;SDS011;57747;43.548;-5.704;2023-03-14T01:00:27;12.18;;;2.03;;
70332;SDS011;57747;43.548;-5.704;2023-03-14T01:02:55;8.80;;;1.50;;
70332;SDS011;57747;43.548;-5.704;2023-03-14T01:05:21;7.93;;;1.35;;
70332;SDS011;57747;43.548;-5.704;2023-03-14T01:07:46;6.35;;;1.60;;
70332;SDS011;57747;43.548;-5.704;2023-03-14T01:10:14;3.58;;;1.40;;
70332;SDS011;57747;43.548;-5.704;2023-03-14T01:12:40;5.85;;;2.00;;
70332;SDS011;57747;43.548;-5.704;2023-03-14T01:15:08;9.23;;;1.38;;
70332;SDS011;57747;43.548;-5.704;2023-03-14T01:17:36;5.07;;;0.85;;
70332;SDS011;57747;43.548;-5.704;2023-03-14T01:20:04;9.88;;;1.17;;
70332;SDS011;57747;43.548;-5.704;2023-03-14T01:22:34;5.50;;;1.75;;
70332;SDS011;57747;43.548;-5.704;2023-03-14T01:24:59;5.63;;;1.20;;
70332;SDS011;57747;43.548;-5.704;2023-03-14T01:27:24;12.15;;;1.55;;
70332;SDS011;57747;43.548;-5.704;2023-03-14T01:29:50;10.63;;;1.33;;
70332;SDS011;57747;43.548;-5.704;2023-03-14T01:32:16;6.65;;;1.33;;
70332;SDS011;57747;43.548;-5.704;2023-03-14T01:34:44;18.17;;;1.58;;
70332;SDS011;57747;43.548;-5.704;2023-03-14T01:37:12;9.30;;;1.50;;
70332;SDS011;57747;43.548;-5.704;2023-03-14T01:39:37;10.57;;;1.63;;
70332;SDS011;57747;43.548;-5.704;2023-03-14T01:42:03;5.53;;;1.45;;
70332;SDS011;57747;43.548;-5.704;2023-03-14T01:44:44;12.52;;;1.63;;
70332;SDS011;57747;43.548;-5.704;2023-03-14T01:47:10;5.78;;;1.20;;
70332;SDS011;57747;43.548;-5.704;2023-03-14T01:49:38;13.98;;;2.33;;
70332;SDS011;57747;43.548;-5.704;2023-03-14T01:54:36;7.13;;;1.40;;
70332;SDS011;57747;43.548;-5.704;2023-03-14T02:02:09;6.78;;;1.48;;
70332;SDS011;57747;43.548;-5.704;2023-03-14T02:04:37;6.63;;;1.55;;
70332;SDS011;57747;43.548;-5.704;2023-03-14T02:07:19;14.65;;;1.65;;
70332;SDS011;57747;43.548;-5.704;2023-03-14T02:09:45;11.48;;;1.40;;
70332;SDS011;57747;43.548;-5.704;2023-03-14T02:12:12;7.55;;;1.60;;
70332;SDS011;57747;43.548;-5.704;2023-03-14T02:14:38;9.77;;;1.55;;
70332;SDS011;57747;43.548;-5.704;2023-03-14T02:17:06;5.05;;;1.08;;
70332;SDS011;57747;43.548;-5.704;2023-03-14T02:22:03;6.65;;;1.27;;
70332;SDS011;57747;43.548;-5.704;2023-03-14T02:24:33;11.38;;;2.67;;
70332;SDS011;57747;43.548;-5.704;2023-03-14T02:29:33;7.45;;;2.08;;
70332;SDS011;57747;43.548;-5.704;2023-03-14T02:32:00;9.90;;;1.55;;
70332;SDS011;57747;43.548;-5.704;2023-03-14T02:34:26;7.47;;;1.05;;
70332;SDS011;57747;43.548;-5.704;2023-03-14T02:36:52;7.35;;;1.58;;
70332;SDS011;57747;43.548;-5.704;2023-03-14T02:42:14;1.95;;;0.98;;
70332;SDS011;57747;43.548;-5.704;2023-03-14T02:44:50;7.82;;;1.60;;
70332;SDS011;57747;43.548;-5.704;2023-03-14T02:47:16;6.47;;;1.35;;
70332;SDS011;57747;43.548;-5.704;2023-03-14T02:49:41;9.00;;;1.88;;
70332;SDS011;57747;43.548;-5.704;2023-03-14T02:52:07;9.13;;;1.40;;
70332;SDS011;57747;43.548;-5.704;2023-03-14T02:54:32;5.13;;;0.93;;
70332;SDS011;57747;43.548;-5.704;2023-03-14T02:56:57;8.15;;;0.95;;
70332;SDS011;57747;43.548;-5.704;2023-03-14T03:36:23;3.45;;;0.90;;
70332;SDS011;57747;43.548;-5.704;2023-03-14T03:42:30;1.42;;;0.70;;
70332;SDS011;57747;43.548;-5.704;2023-03-14T04:02:41;6.65;;;0.90;;
70332;SDS011;57747;43.548;-5.704;2023-03-14T04:05:09;4.82;;;0.75;;
70332;SDS011;57747;43.548;-5.704;2023-03-14T04:07:35;6.15;;;1.13;;
70332;SDS011;57747;43.548;-5.704;2023-03-14T04:10:00;7.90;;;1.42;;
70332;SDS011;57747;43.548;-5.704;2023-03-14T04:12:26;13.23;;;1.70;;
70332;SDS011;57747;43.548;-5.704;2023-03-14T04:14:51;8.57;;;1.48;;
70332;SDS011;57747;43.548;-5.704;2023-03-14T04:17:16;17.75;;;1.33;;
70332;SDS011;57747;43.548;-5.704;2023-03-14T04:19:42;4.70;;;1.27;;
70332;SDS011;57747;43.548;-5.704;2023-03-14T04:22:08;8.40;;;1.45;;
70332;SDS011;57747;43.548;-5.704;2023-03-14T04:24:33;6.57;;;1.25;;
70332;SDS011;57747;43.548;-5.704;2023-03-14T04:26:59;3.90;;;1.10;;
70332;SDS011;57747;43.548;-5.704;2023-03-14T04:29:24;9.18;;;1.40;;
70332;SDS011;57747;43.548;-5.704;2023-03-14T04:31:52;4.63;;;1.10;;
70332;SDS011;57747;43.548;-5.704;2023-03-14T04:34:17;10.32;;;1.35;;
70332;SDS011;57747;43.548;-5.704;2023-03-14T04:36:43;8.40;;;1.30;;
70332;SDS011;57747;43.548;-5.704;2023-03-14T04:39:08;4.78;;;1.00;;
70332;SDS011;57747;43.548;-5.704;2023-03-14T04:41:33;6.80;;;0.82;;
70332;SDS011;57747;43.548;-5.704;2023-03-14T04:43:59;6.78;;;0.93;;
70332;SDS011;57747;43.548;-5.704;2023-03-14T04:46:24;8.57;;;1.50;;
70332;SDS011;57747;43.548;-5.704;2023-03-14T04:48:50;2.60;;;0.63;;
70332;SDS011;57747;43.548;-5.704;2023-03-14T04:51:15;11.65;;;1.02;;
70332;SDS011;57747;43.548;-5.704;2023-03-14T04:53:40;10.02;;;1.10;;
70332;SDS011;57747;43.548;-5.704;2023-03-14T04:56:06;3.58;;;1.25;;
70332;SDS011;57747;43.548;-5.704;2023-03-14T04:58:31;3.28;;;0.57;;
70332;SDS011;57747;43.548;-5.704;2023-03-14T05:37:08;7.38;;;0.50;;
70332;SDS011;57747;43.548;-5.704;2023-03-14T05:45:47;6.22;;;1.00;;
70332;SDS011;57747;43.548;-5.704;2023-03-14T05:48:15;15.82;;;1.10;;
70332;SDS011;57747;43.548;-5.704;2023-03-14T06:38:21;9.02;;;0.90;;
70332;SDS011;57747;43.548;-5.704;2023-03-14T07:11:09;16.27;;;1.48;;
70332;SDS011;57747;43.548;-5.704;2023-03-14T07:34:53;7.07;;;0.95;;
70332;SDS011;57747;43.548;-5.704;2023-03-14T07:37:19;4.93;;;0.90;;
70332;SDS011;57747;43.548;-5.704;2023-03-14T07:39:45;11.10;;;0.90;;
70332;SDS011;57747;43.548;-5.704;2023-03-14T07:45:15;2.97;;;1.15;;
70332;SDS011;57747;43.548;-5.704;2023-03-14T08:05:56;3.13;;;0.98;;
70332;SDS011;57747;43.548;-5.704;2023-03-14T08:29:41;14.73;;;1.73;;
70332;SDS011;57747;43.548;-5.704;2023-03-14T08:50:16;10.68;;;1.70;;
70332;SDS011;57747;43.548;-5.704;2023-03-14T09:38:05;10.60;;;1.42;;
70332;SDS011;57747;43.548;-5.704;2023-03-14T09:58:28;5.85;;;1.00;;
70332;SDS011;57747;43.548;-5.704;2023-03-14T10:16:07;6.40;;;1.20;;
70332;SDS011;57747;43.548;-5.704;2023-03-14T10:21:50;4.70;;;1.10;;
70332;SDS011;57747;43.548;-5.704;2023-03-14T10:52:37;10.50;;;1.38;;
70332;SDS011;57747;43.548;-5.704;2023-03-14T11:36:25;9.40;;;1.58;;
70332;SDS011;57747;43.548;-5.704;2023-03-14T12:13:36;5.05;;;1.13;;
70332;SDS011;57747;43.548;-5.704;2023-03-14T12:55:20;3.63;;;1.27;;
70332;SDS011;57747;43.548;-5.704;2023-03-14T13:40:19;8.20;;;1.50;;
70332;SDS011;57747;43.548;-5.704;2023-03-14T14:09:40;6.10;;;1.15;;
70332;SDS011;57747;43.548;-5.704;2023-03-14T14:20:59;12.85;;;4.40;;
70332;SDS011;57747;43.548;-5.704;2023-03-14T15:14:01;9.45;;;1.52;;
70332;SDS011;57747;43.548;-5.704;2023-03-14T15:25:52;8.07;;;2.20;;
70332;SDS011;57747;43.548;-5.704;2023-03-14T15:37:21;15.68;;;3.30;;
70332;SDS011;57747;43.548;-5.704;2023-03-14T16:45:56;6.82;;;1.60;;
70332;SDS011;57747;43.548;-5.704;2023-03-14T17:18:50;11.23;;;2.10;;
70332;SDS011;57747;43.548;-5.704;2023-03-14T17:24:18;11.05;;;1.92;;
70332;SDS011;57747;43.548;-5.704;2023-03-14T17:32:53;28.40;;;3.07;;
70332;SDS011;57747;43.548;-5.704;2023-03-14T17:38:21;10.23;;;1.70;;
70332;SDS011;57747;43.548;-5.704;2023-03-14T18:14:00;16.38;;;1.75;;
70332;SDS011;57747;43.548;-5.704;2023-03-14T18:16:34;21.58;;;2.08;;
70332;SDS011;57747;43.548;-5.704;2023-03-14T18:18:59;11.65;;;1.67;;
70332;SDS011;57747;43.548;-5.704;2023-03-14T18:21:35;18.50;;;2.17;;
70332;SDS011;57747;43.548;-5.704;2023-03-14T18:30:03;14.32;;;2.38;;
70332;SDS011;57747;43.548;-5.704;2023-03-14T18:35:06;15.98;;;2.13;;
70332;SDS011;57747;43.548;-5.704;2023-03-14T18:37:32;16.65;;;2.03;;
70332;SDS011;57747;43.548;-5.704;2023-03-14T18:39:58;16.55;;;3.00;;
70332;SDS011;57747;43.548;-5.704;2023-03-14T18:42:24;8.48;;;1.50;;
70332;SDS011;57747;43.548;-5.704;2023-03-14T18:44:49;17.08;;;3.00;;
70332;SDS011;57747;43.548;-5.704;2023-03-14T18:47:14;21.70;;;2.25;;
70332;SDS011;57747;43.548;-5.704;2023-03-14T18:49:42;18.60;;;2.55;;
70332;SDS011;57747;43.548;-5.704;2023-03-14T19:25:08;15.98;;;1.85;;
70332;SDS011;57747;43.548;-5.704;2023-03-14T19:27:35;30.83;;;3.42;;
70332;SDS011;57747;43.548;-5.704;2023-03-14T19:30:02;11.73;;;1.90;;
70332;SDS011;57747;43.548;-5.704;2023-03-14T19:32:27;27.58;;;4.57;;
70332;SDS011;57747;43.548;-5.704;2023-03-14T19:34:53;21.83;;;2.95;;
70332;SDS011;57747;43.548;-5.704;2023-03-14T19:37:18;15.38;;;2.53;;
70332;SDS011;57747;43.548;-5.704;2023-03-14T19:39:43;18.30;;;3.50;;
70332;SDS011;57747;43.548;-5.704;2023-03-14T19:42:11;20.13;;;3.10;;
70332;SDS011;57747;43.548;-5.704;2023-03-14T19:44:36;22.25;;;2.85;;
70332;SDS011;57747;43.548;-5.704;2023-03-14T19:47:02;18.92;;;2.80;;
70332;SDS011;57747;43.548;-5.704;2023-03-14T19:49:29;21.20;;;3.63;;
70332;SDS011;57747;43.548;-5.704;2023-03-14T19:51:56;21.88;;;2.95;;
70332;SDS011;57747;43.548;-5.704;2023-03-14T19:54:24;14.27;;;2.50;;
70332;SDS011;57747;43.548;-5.704;2023-03-14T19:56:50;13.77;;;2.53;;
70332;SDS011;57747;43.548;-5.704;2023-03-14T19:59:16;12.63;;;2.95;;
70332;SDS011;57747;43.548;-5.704;2023-03-14T20:01:42;14.63;;;2.95;;
70332;SDS011;57747;43.548;-5.704;2023-03-14T20:04:11;22.02;;;3.05;;
70332;SDS011;57747;43.548;-5.704;2023-03-14T20:06:39;19.52;;;2.90;;
70332;SDS011;57747;43.548;-5.704;2023-03-14T20:09:06;23.35;;;3.05;;
70332;SDS011;57747;43.548;-5.704;2023-03-14T20:11:34;16.48;;;3.80;;
70332;SDS011;57747;43.548;-5.704;2023-03-14T20:14:04;12.50;;;3.65;;
70332;SDS011;57747;43.548;-5.704;2023-03-14T20:16:29;14.80;;;3.28;;
70332;SDS011;57747;43.548;-5.704;2023-03-14T20:18:59;22.80;;;3.28;;
70332;SDS011;57747;43.548;-5.704;2023-03-14T20:21:25;23.52;;;3.83;;
70332;SDS011;57747;43.548;-5.704;2023-03-14T20:23:50;19.15;;;3.03;;
70332;SDS011;57747;43.548;-5.704;2023-03-14T20:26:16;21.20;;;3.92;;
70332;SDS011;57747;43.548;-5.704;2023-03-14T20:28:41;23.63;;;4.43;;
70332;SDS011;57747;43.548;-5.704;2023-03-14T20:31:08;25.90;;;5.13;;
70332;SDS011;57747;43.548;-5.704;2023-03-14T20:33:34;17.20;;;2.95;;
70332;SDS011;57747;43.548;-5.704;2023-03-14T20:35:59;16.92;;;2.97;;
70332;SDS011;57747;43.548;-5.704;2023-03-14T20:38:25;20.27;;;3.28;;
70332;SDS011;57747;43.548;-5.704;2023-03-14T20:40:51;18.25;;;2.83;;
70332;SDS011;57747;43.548;-5.704;2023-03-14T20:43:17;23.40;;;3.00;;
70332;SDS011;57747;43.548;-5.704;2023-03-14T20:45:42;15.20;;;3.55;;
70332;SDS011;57747;43.548;-5.704;2023-03-14T20:48:07;17.08;;;2.60;;
70332;SDS011;57747;43.548;-5.704;2023-03-14T20:50:35;20.02;;;3.08;;
70332;SDS011;57747;43.548;-5.704;2023-03-14T20:53:01;10.05;;;2.80;;
70332;SDS011;57747;43.548;-5.704;2023-03-14T20:55:26;24.17;;;6.93;;
70332;SDS011;57747;43.548;-5.704;2023-03-14T20:57:54;26.85;;;6.00;;
70332;SDS011;57747;43.548;-5.704;2023-03-14T21:00:20;22.05;;;2.85;;
70332;SDS011;57747;43.548;-5.704;2023-03-14T21:02:46;14.88;;;2.20;;
70332;SDS011;57747;43.548;-5.704;2023-03-14T21:05:12;16.48;;;2.10;;
70332;SDS011;57747;43.548;-5.704;2023-03-14T21:07:37;10.90;;;2.72;;
70332;SDS011;57747;43.548;-5.704;2023-03-14T21:10:07;13.50;;;2.30;;
70332;SDS011;57747;43.548;-5.704;2023-03-14T21:12:32;17.05;;;1.73;;
70332;SDS011;57747;43.548;-5.704;2023-03-14T21:15:01;24.63;;;7.72;;
70332;SDS011;57747;43.548;-5.704;2023-03-14T21:17:26;17.10;;;2.67;;
70332;SDS011;57747;43.548;-5.704;2023-03-14T21:19:51;14.23;;;2.75;;
70332;SDS011;57747;43.548;-5.704;2023-03-14T21:22:22;8.32;;;1.95;;
70332;SDS011;57747;43.548;-5.704;2023-03-14T21:24:48;15.68;;;2.20;;
70332;SDS011;57747;43.548;-5.704;2023-03-14T21:27:13;11.43;;;1.98;;
70332;SDS011;57747;43.548;-5.704;2023-03-14T21:29:38;9.25;;;2.63;;
70332;SDS011;57747;43.548;-5.704;2023-03-14T21:32:04;19.00;;;2.50;;
70332;SDS011;57747;43.548;-5.704;2023-03-14T21:34:29;9.55;;;2.45;;
70332;SDS011;57747;43.548;-5.704;2023-03-14T21:36:55;11.48;;;2.42;;
70332;SDS011;57747;43.548;-5.704;2023-03-14T21:39:20;18.88;;;2.58;;
70332;SDS011;57747;43.548;-5.704;2023-03-14T21:41:46;22.80;;;3.13;;
70332;SDS011;57747;43.548;-5.704;2023-03-14T21:44:11;9.10;;;2.30;;
70332;SDS011;57747;43.548;-5.704;2023-03-14T21:46:40;16.08;;;3.20;;
70332;SDS011;57747;43.548;-5.704;2023-03-14T21:49:05;10.77;;;1.92;;
70332;SDS011;57747;43.548;-5.704;2023-03-14T21:51:31;18.52;;;2.92;;
70332;SDS011;57747;43.548;-5.704;2023-03-14T21:53:59;8.13;;;2.22;;
70332;SDS011;57747;43.548;-5.704;2023-03-14T21:56:25;8.88;;;2.25;;
70332;SDS011;57747;43.548;-5.704;2023-03-14T21:58:51;14.85;;;2.72;;
70332;SDS011;57747;43.548;-5.704;2023-03-14T22:01:19;18.85;;;2.97;;
70332;SDS011;57747;43.548;-5.704;2023-03-14T22:03:46;16.55;;;2.78;;
70332;SDS011;57747;43.548;-5.704;2023-03-14T22:06:12;9.27;;;2.88;;
70332;SDS011;57747;43.548;-5.704;2023-03-14T22:08:37;25.58;;;3.65;;
70332;SDS011;57747;43.548;-5.704;2023-03-14T22:11:04;10.07;;;3.17;;
70332;SDS011;57747;43.548;-5.704;2023-03-14T22:13:30;10.57;;;3.25;;
70332;SDS011;57747;43.548;-5.704;2023-03-14T22:15:55;12.38;;;2.85;;
70332;SDS011;57747;43.548;-5.704;2023-03-14T22:18:24;15.63;;;3.10;;
70332;SDS011;57747;43.548;-5.704;2023-03-14T22:20:56;10.85;;;2.20;;
70332;SDS011;57747;43.548;-5.704;2023-03-14T22:32:17;12.52;;;2.50;;
70332;SDS011;57747;43.548;-5.704;2023-03-14T22:34:51;17.77;;;2.47;;
70332;SDS011;57747;43.548;-5.704;2023-03-14T22:37:17;13.43;;;2.22;;
70332;SDS011;57747;43.548;-5.704;2023-03-14T22:39:57;15.63;;;2.20;;
70332;SDS011;57747;43.548;-5.704;2023-03-14T22:42:30;12.90;;;2.63;;
70332;SDS011;57747;43.548;-5.704;2023-03-14T22:47:57;11.73;;;2.03;;
70332;SDS011;57747;43.548;-5.704;2023-03-14T23:02:36;16.77;;;3.43;;
70332;SDS011;57747;43.548;-5.704;2023-03-14T23:07:31;17.70;;;4.07;;
70332;SDS011;57747;43.548;-5.704;2023-03-14T23:10:03;16.10;;;3.33;;
70332;SDS011;57747;43.548;-5.704;2023-03-14T23:12:29;16.67;;;3.78;;
70332;SDS011;57747;43.548;-5.704;2023-03-14T23:29:52;17.77;;;3.42;;
70332;SDS011;57747;43.548;-5.704;2023-03-14T23:38:26;23.43;;;3.30;;
70332;SDS011;57747;43.548;-5.704;2023-03-14T23:44:03;23.92;;;3.08;;
70332;SDS011;57747;43.548;-5.704;2023-03-14T23:58:40;17.08;;;4.55;;
